Abisko, Sweden

1:02 PM CEST on July 23, 2016 (GMT +0200)
Solpiggen | | Change Station

Elev 1623 ft 68.43 °N, 18.12 °E | Updated 11 seconds ago

Partly Cloudy
Partly Cloudy
73.2 °F
Feels Like 77 °F
N
4.5
Wind Variable Wind from West
Gusts 5.4 mph

Today
High -- | Low -- °F
--% Chance of Precip.
Yesterday
High -- | Low -- °F
Precip. -- in
Pressure 30.06 in
Visibility 6.2 miles
Clouds Few 3000 ft
Few 5000 ft
Heat Index 77 °F
Dew Point 55 °F
Humidity 53%
Rainfall 0.00 in
Snow Depth Not available.
1:56 AM 11:38 PM
Waning Gibbous, 86% visible
METAR ENDU 231050Z 29010KT 9999 FEW030CB FEW050 26/14 Q1018 TEMPO SHRA
Pressure 30.06 in
Visibility 6.2 miles
Clouds Few 3000 ft
Few 5000 ft
Heat Index 77 °F
Dew Point 55 °F
Humidity 53%
Rainfall 0.00 in
Snow Depth Not available.
1:56 AM 11:38 PM
Waning Gibbous, 86% visible
METAR ENDU 231050Z 29010KT 9999 FEW030CB FEW050 26/14 Q1018 TEMPO SHRA

10-Day Weather Forecast

×

Almanac

Astronomy

Jul. 23, 2016 Rise Set
Actual Time
Civil Twilight
Nautical Twilight
Astronomical Twilight
Moon
Length of Visible Light
Length of Day
Tomorrow will be .
, % of the Moon is Illuminated

Today's Extremes

Country Highs Country Lows

Community

WunderPhotos

Upload Photos

1,926,798 photos uploaded!

WunderBlog® & News

Nearby

Air Quality

  Air Quality AQ Index Pollutant
Not available.

Snow Depth

Station Depth Elevation

Earthquake Activity

City Distance Mag. Time & Date
Minimum magnitude displayed is 2.5.

Coastal Water Temperatures

Place Temperature

Stations

Nearby Weather Stations

Station Location Temp. Windchill Dew Point Humidity Wind Precip. Elev Updated Type